Time;durP1;ratioP1;P1;durP2;ratioP2;P2;SDS_P1;SDS_P2;PMS_P1;PMS_P2;Temp;Humidity;BMP_temperature;BMP_pressure;BME280_temperature;BME280_humidity;BME280_pressure;Samples;Min_cycle;Max_cycle;Signal;HPM_P1;HPM_P2
2022/11/21 00:01:57;;;;;;;3.92;1.65;;;19.30;76.70;;;;;;5032067;28;20029;-70
2022/11/21 00:04:23;;;;;;;3.53;1.65;;;19.30;76.90;;;;;;5031137;28;20022;-71
2022/11/21 00:06:50;;;;;;;2.92;1.30;;;19.20;77.00;;;;;;5030884;28;20018;-70
2022/11/21 00:09:16;;;;;;;3.28;1.20;;;19.20;77.20;;;;;;5031536;28;20017;-71
2022/11/21 00:11:41;;;;;;;4.50;1.42;;;19.10;77.40;;;;;;5032287;28;20480;-70
2022/11/21 00:14:07;;;;;;;5.47;1.02;;;19.10;77.50;;;;;;5031962;28;20057;-71
2022/11/21 00:16:33;;;;;;;3.83;1.30;;;19.10;77.60;;;;;;5033356;28;20107;-70
2022/11/21 00:18:58;;;;;;;5.13;1.02;;;19.00;77.70;;;;;;5032851;28;20501;-71
2022/11/21 00:21:24;;;;;;;4.93;1.25;;;19.00;77.80;;;;;;5032481;28;20029;-70
2022/11/21 00:23:51;;;;;;;7.38;1.33;;;19.00;77.90;;;;;;5032331;28;20017;-70
2022/11/21 00:26:16;;;;;;;3.33;1.60;;;19.00;78.00;;;;;;5033017;28;20105;-70
2022/11/21 00:28:42;;;;;;;3.85;1.42;;;18.90;78.00;;;;;;5052974;28;20096;-71
2022/11/21 00:31:08;;;;;;;7.00;1.25;;;18.90;78.10;;;;;;5049584;28;20021;-70
2022/11/21 00:33:34;;;;;;;5.07;1.63;;;18.90;78.20;;;;;;5044450;28;20029;-70
2022/11/21 00:36:07;;;;;;;5.13;1.30;;;18.90;78.40;;;;;;5015725;28;20026;-71
2022/11/21 00:38:34;;;;;;;4.72;1.40;;;18.80;78.30;;;;;;5031997;28;20542;-71
2022/11/21 00:40:59;;;;;;;2.58;1.10;;;18.80;78.40;;;;;;5032904;28;20030;-70
2022/11/21 00:43:25;;;;;;;3.50;1.10;;;18.80;78.50;;;;;;5033554;28;20022;-70
2022/11/21 00:45:50;;;;;;;3.22;1.27;;;18.80;78.60;;;;;;5033032;28;20032;-70
2022/11/21 00:48:16;;;;;;;2.33;1.10;;;18.80;78.70;;;;;;5033328;28;20021;-70
2022/11/21 00:50:42;;;;;;;4.13;1.20;;;18.70;78.70;;;;;;5033090;28;20030;-70
2022/11/21 00:53:07;;;;;;;2.90;0.85;;;18.70;78.80;;;;;;5032991;28;20048;-70
2022/11/21 00:55:35;;;;;;;3.42;1.08;;;18.70;78.90;;;;;;5033246;28;20086;-71
2022/11/21 00:58:01;;;;;;;3.90;1.55;;;18.60;78.90;;;;;;5031523;28;20509;-71
2022/11/21 01:00:27;;;;;;;5.07;1.30;;;18.60;78.90;;;;;;5031619;28;20112;-70
2022/11/21 01:02:52;;;;;;;4.80;1.13;;;18.60;79.00;;;;;;5031548;28;20053;-70
2022/11/21 01:05:19;;;;;;;3.13;1.38;;;18.60;79.10;;;;;;5033217;28;20052;-70
2022/11/21 01:07:47;;;;;;;4.97;1.27;;;18.60;79.20;;;;;;5032705;28;20029;-71
2022/11/21 01:10:13;;;;;;;4.55;1.40;;;18.50;79.10;;;;;;4998880;28;20089;-71
2022/11/21 01:12:38;;;;;;;7.85;1.30;;;18.50;79.20;;;;;;5032803;28;20034;-71
2022/11/21 01:15:05;;;;;;;2.53;1.08;;;18.50;79.30;;;;;;5032703;28;20033;-71
2022/11/21 01:17:31;;;;;;;21.38;1.83;;;18.50;79.40;;;;;;5032736;28;20034;-71
2022/11/21 01:19:57;;;;;;;5.60;1.60;;;18.50;80.50;;;;;;5031388;28;20480;-71
2022/11/21 01:22:23;;;;;;;3.58;1.48;;;18.50;79.50;;;;;;5031502;28;20096;-71
2022/11/21 01:24:48;;;;;;;5.25;1.67;;;18.50;79.60;;;;;;5031348;28;20040;-71
2022/11/21 01:27:14;;;;;;;2.70;0.90;;;18.50;79.70;;;;;;5042045;28;20028;-71
2022/11/21 01:29:40;;;;;;;3.45;1.25;;;18.50;79.70;;;;;;5034785;28;20060;-71
2022/11/21 01:32:05;;;;;;;5.43;1.23;;;18.40;79.70;;;;;;5053761;28;20024;-71
2022/11/21 01:34:31;;;;;;;4.80;1.17;;;18.40;79.80;;;;;;5056727;28;20071;-71
2022/11/21 01:36:57;;;;;;;2.58;0.98;;;18.40;79.90;;;;;;5056456;28;20076;-71
2022/11/21 01:39:22;;;;;;;3.05;1.17;;;18.40;80.00;;;;;;5056807;28;20551;-71
2022/11/21 01:41:48;;;;;;;6.13;1.38;;;18.40;80.00;;;;;;5056622;28;20025;-71
2022/11/21 01:44:19;;;;;;;3.42;1.17;;;18.40;80.00;;;;;;5038633;28;20032;-71
2022/11/21 01:46:45;;;;;;;4.35;1.40;;;18.40;80.10;;;;;;5056471;28;20017;-71
2022/11/21 01:49:14;;;;;;;3.92;1.52;;;18.30;80.10;;;;;;5055261;28;20035;-71
2022/11/21 01:51:45;;;;;;;6.43;1.33;;;18.30;80.20;;;;;;5038569;28;20487;-70
2022/11/21 01:54:13;;;;;;;2.28;1.00;;;18.40;80.30;;;;;;5055116;28;20440;-70
2022/11/21 01:57:05;;;;;;;10.43;1.45;;;18.30;80.30;;;;;;5038897;28;20122;-71
2022/11/21 01:59:35;;;;;;;4.05;1.20;;;18.30;80.30;;;;;;5055332;28;20059;-70
2022/11/21 02:02:01;;;;;;;2.72;1.10;;;18.30;80.40;;;;;;5054961;28;20435;-70
2022/11/21 02:04:29;;;;;;;2.78;1.08;;;18.30;80.50;;;;;;5038510;28;20387;-70
2022/11/21 02:06:55;;;;;;;3.88;1.08;;;18.30;80.50;;;;;;5054577;28;20024;-70
2022/11/21 02:09:20;;;;;;;5.47;1.20;;;18.30;80.60;;;;;;5054849;28;20021;-70
2022/11/21 02:11:51;;;;;;;5.30;1.10;;;18.30;80.60;;;;;;5038581;28;20071;-70
2022/11/21 02:14:17;;;;;;;2.85;0.93;;;18.20;80.60;;;;;;5038456;28;20028;-70
2022/11/21 02:16:42;;;;;;;4.60;1.17;;;18.30;80.70;;;;;;5056029;28;20025;-70
2022/11/21 02:19:09;;;;;;;2.17;1.20;;;18.30;80.80;;;;;;5051804;28;20422;-70
2022/11/21 02:22:01;;;;;;;2.65;1.00;;;18.20;80.80;;;;;;5034527;28;20025;-70
2022/11/21 02:24:33;;;;;;;4.05;1.35;;;18.20;80.80;;;;;;5036120;28;20109;-71
2022/11/21 02:26:59;;;;;;;1.92;0.90;;;18.20;80.90;;;;;;5041565;28;20039;-71
2022/11/21 02:29:24;;;;;;;2.58;1.13;;;18.20;80.90;;;;;;5038033;28;20498;-71
2022/11/21 02:31:51;;;;;;;4.97;1.10;;;18.20;80.90;;;;;;5037999;28;20111;-71
2022/11/21 02:34:17;;;;;;;4.97;1.17;;;18.20;80.90;;;;;;5055532;28;20087;-71
2022/11/21 02:36:46;;;;;;;1.65;0.90;;;18.20;81.00;;;;;;5055942;28;20490;-71
2022/11/21 02:39:24;;;;;;;2.63;1.10;;;18.20;81.00;;;;;;5037702;28;20074;-71
2022/11/21 02:42:08;;;;;;;6.40;1.73;;;18.20;81.10;;;;;;5054410;28;20021;-71
2022/11/21 02:44:42;;;;;;;1.95;0.95;;;18.20;81.10;;;;;;5054439;28;20107;-71
2022/11/21 02:47:08;;;;;;;4.05;0.77;;;18.20;81.20;;;;;;5037934;28;20025;-71
2022/11/21 02:49:40;;;;;;;2.65;1.15;;;18.20;81.10;;;;;;5055337;28;20025;-71
2022/11/21 02:52:05;;;;;;;3.65;0.98;;;18.20;81.20;;;;;;5037855;28;20466;-71
2022/11/21 02:54:31;;;;;;;2.65;1.10;;;18.10;81.20;;;;;;5055557;28;20053;-71
2022/11/21 02:56:56;;;;;;;1.35;0.90;;;18.10;81.20;;;;;;5053997;28;20099;-71
2022/11/21 02:59:22;;;;;;;6.15;1.35;;;18.10;81.20;;;;;;5053775;28;20056;-71
2022/11/21 03:01:48;;;;;;;3.97;1.00;;;18.10;81.20;;;;;;5055067;28;20040;-71
2022/11/21 03:04:13;;;;;;;3.65;1.27;;;18.10;81.20;;;;;;5053556;28;20029;-71
2022/11/21 03:06:39;;;;;;;2.67;1.20;;;18.10;81.20;;;;;;5055288;28;20029;-71
2022/11/21 03:09:05;;;;;;;3.28;1.20;;;18.10;81.20;;;;;;5055006;28;20037;-71
2022/11/21 03:11:30;;;;;;;2.05;1.17;;;18.10;81.20;;;;;;5054776;28;20021;-70
2022/11/21 03:13:56;;;;;;;2.08;0.80;;;18.10;81.20;;;;;;5055083;28;20032;-71
2022/11/21 03:16:21;;;;;;;5.10;1.20;;;18.10;81.20;;;;;;5053791;28;20118;-71
2022/11/21 03:18:47;;;;;;;2.60;1.08;;;18.10;81.20;;;;;;5054718;28;20104;-71
2022/11/21 03:21:13;;;;;;;2.03;1.00;;;18.10;81.40;;;;;;5034857;28;20029;-71
2022/11/21 03:23:38;;;;;;;3.85;1.00;;;18.10;81.40;;;;;;5033571;28;20353;-71
2022/11/21 03:26:04;;;;;;;2.40;1.13;;;18.10;81.40;;;;;;5034863;28;20029;-71
2022/11/21 03:28:29;;;;;;;6.40;1.98;;;18.10;81.40;;;;;;5054244;28;20032;-71
2022/11/21 03:30:55;;;;;;;2.85;1.00;;;18.10;81.50;;;;;;5053316;28;20075;-71
2022/11/21 03:33:20;;;;;;;5.32;1.23;;;18.10;81.50;;;;;;5054634;28;20379;-71
2022/11/21 03:35:46;;;;;;;3.25;1.10;;;18.10;81.50;;;;;;5036566;28;20463;-71
2022/11/21 03:38:12;;;;;;;2.63;1.30;;;18.10;81.50;;;;;;5053244;28;20033;-71
2022/11/21 03:40:38;;;;;;;3.10;1.20;;;18.10;81.60;;;;;;5054432;28;20060;-71
2022/11/21 03:43:07;;;;;;;2.35;0.95;;;18.10;81.70;;;;;;5053123;28;20431;-71
2022/11/21 03:45:32;;;;;;;8.55;1.30;;;18.10;81.70;;;;;;5054316;28;20407;-71
2022/11/21 03:47:58;;;;;;;2.75;1.00;;;18.10;81.70;;;;;;5036360;28;20033;-71
2022/11/21 03:50:24;;;;;;;5.07;1.20;;;18.00;81.70;;;;;;5054203;28;20021;-71
2022/11/21 03:52:49;;;;;;;1.63;0.77;;;18.00;81.70;;;;;;5053254;28;20033;-71
2022/11/21 03:55:15;;;;;;;2.72;0.90;;;18.10;81.80;;;;;;5054008;28;20028;-71
2022/11/21 03:57:40;;;;;;;3.53;1.27;;;18.10;81.80;;;;;;5052608;28;20049;-71
2022/11/21 04:00:07;;;;;;;4.05;1.35;;;18.10;81.80;;;;;;5052793;28;20036;-71
2022/11/21 04:02:33;;;;;;;2.25;0.80;;;18.10;81.80;;;;;;5036322;28;20021;-71
2022/11/21 04:04:58;;;;;;;2.17;0.80;;;18.00;81.80;;;;;;5054065;28;20534;-71
2022/11/21 04:07:24;;;;;;;2.70;1.00;;;18.10;81.80;;;;;;5052636;28;20021;-71
2022/11/21 04:09:50;;;;;;;1.35;0.90;;;18.00;81.70;;;;;;5052741;28;20044;-71
2022/11/21 04:12:16;;;;;;;3.10;0.98;;;18.00;81.80;;;;;;5053708;28;20463;-71
2022/11/21 04:14:41;;;;;;;1.50;0.98;;;18.00;81.80;;;;;;5052613;28;20036;-71
2022/11/21 04:17:07;;;;;;;3.47;1.20;;;18.00;81.90;;;;;;5053636;28;20063;-71
2022/11/21 04:19:32;;;;;;;3.20;1.00;;;18.00;81.90;;;;;;5047483;28;20030;-71
2022/11/21 04:21:58;;;;;;;1.48;0.90;;;18.00;81.90;;;;;;5033753;28;20032;-71
2022/11/21 04:24:24;;;;;;;3.75;1.25;;;18.00;81.90;;;;;;5033422;28;20026;-71
2022/11/21 04:26:49;;;;;;;2.25;0.77;;;18.00;82.00;;;;;;5039306;28;20021;-70
2022/11/21 04:29:15;;;;;;;4.25;1.30;;;18.00;82.00;;;;;;5053582;28;20028;-71
2022/11/21 04:31:40;;;;;;;4.47;0.88;;;18.00;82.00;;;;;;5053258;28;20419;-71
2022/11/21 04:34:06;;;;;;;5.28;1.38;;;18.00;81.90;;;;;;5053282;28;20025;-71
2022/11/21 04:36:32;;;;;;;6.40;0.90;;;18.00;82.00;;;;;;5053489;28;20476;-71
2022/11/21 04:38:57;;;;;;;2.88;1.00;;;18.00;81.90;;;;;;5052278;28;20494;-71
2022/11/21 04:41:23;;;;;;;2.13;0.90;;;18.00;81.90;;;;;;5053433;28;20056;-71
2022/11/21 04:43:48;;;;;;;2.85;0.90;;;18.00;81.90;;;;;;5052154;28;20082;-71
2022/11/21 04:46:14;;;;;;;4.00;0.98;;;18.00;81.90;;;;;;5052970;28;20081;-71
2022/11/21 04:48:40;;;;;;;4.15;1.15;;;18.10;82.00;;;;;;5053228;28;20021;-71
2022/11/21 04:51:05;;;;;;;2.25;0.93;;;18.00;81.80;;;;;;5053206;28;20464;-71
2022/11/21 04:53:31;;;;;;;1.83;0.90;;;18.00;81.80;;;;;;5052011;28;20029;-71
2022/11/21 04:55:57;;;;;;;2.03;1.00;;;18.00;81.80;;;;;;5053237;28;20113;-71
2022/11/21 04:58:22;;;;;;;8.45;1.42;;;18.00;81.80;;;;;;5052928;28;20068;-71
2022/11/21 05:00:48;;;;;;;1.90;0.88;;;18.00;81.80;;;;;;5052762;28;20033;-71
2022/11/21 05:03:14;;;;;;;3.50;0.95;;;18.00;81.90;;;;;;5052964;28;20025;-70
2022/11/21 05:05:39;;;;;;;5.65;0.95;;;18.00;81.80;;;;;;5049398;28;20025;-72
2022/11/21 05:08:05;;;;;;;2.90;1.23;;;18.00;81.90;;;;;;5040964;28;20022;-70
2022/11/21 05:13:19;;;;;;;2.15;0.80;;;18.00;81.80;;;;;;5033128;28;20468;-71
2022/11/21 05:13:22;;;;;;;6.60;1.10;;;18.00;81.80;;;;;;5032900;28;20080;-70
2022/11/21 05:15:50;;;;;;;2.85;1.00;;;18.00;81.80;;;;;;5031722;28;20032;-70
2022/11/21 05:18:19;;;;;;;8.40;2.50;;;18.00;81.80;;;;;;5031782;28;20025;-70
2022/11/21 05:20:45;;;;;;;2.92;1.25;;;18.00;81.90;;;;;;5015476;28;20043;-70
2022/11/21 05:23:10;;;;;;;3.00;1.25;;;18.00;81.90;;;;;;5032993;28;20021;-70
2022/11/21 05:25:36;;;;;;;5.70;0.80;;;18.00;81.90;;;;;;5032593;28;20075;-70
2022/11/21 05:28:02;;;;;;;5.00;1.27;;;18.00;82.00;;;;;;5047236;28;20100;-70
2022/11/21 05:30:28;;;;;;;5.53;1.15;;;18.00;82.00;;;;;;5052687;28;20025;-70
2022/11/21 05:32:53;;;;;;;6.00;1.10;;;18.00;82.00;;;;;;5051623;28;20108;-71
2022/11/21 05:35:19;;;;;;;1.88;0.93;;;18.00;82.00;;;;;;5051167;28;20052;-70
2022/11/21 05:37:44;;;;;;;3.88;0.85;;;18.00;82.00;;;;;;5035151;28;20048;-70
2022/11/21 05:40:10;;;;;;;3.63;1.00;;;18.00;82.00;;;;;;5052459;28;20158;-71
2022/11/21 05:45:24;;;;;;;7.32;1.95;;;18.00;82.10;;;;;;5040724;28;20117;-72
2022/11/21 05:47:50;;;;;;;2.80;1.10;;;18.00;82.00;;;;;;5030999;28;20097;-72
2022/11/21 05:50:16;;;;;;;2.50;0.80;;;18.00;82.10;;;;;;5030746;28;20021;-72
2022/11/21 05:52:41;;;;;;;2.97;1.20;;;18.00;82.10;;;;;;5032104;28;20034;-71
2022/11/21 05:55:07;;;;;;;5.65;1.13;;;18.00;82.10;;;;;;5030733;28;20076;-72
2022/11/21 05:57:33;;;;;;;5.43;1.17;;;18.00;82.10;;;;;;5031753;28;20160;-72
2022/11/21 05:59:58;;;;;;;3.47;1.00;;;18.00;82.20;;;;;;5030768;28;20044;-72
2022/11/21 06:05:08;;;;;;;3.63;1.20;;;18.00;82.20;;;;;;5030769;28;20391;-72
2022/11/21 06:07:34;;;;;;;4.47;0.90;;;18.00;82.20;;;;;;5030883;28;20453;-72
2022/11/21 06:09:59;;;;;;;2.72;0.90;;;17.90;82.20;;;;;;5030782;28;20028;-72
2022/11/21 06:12:25;;;;;;;4.30;0.95;;;17.90;82.20;;;;;;5031368;28;20037;-72
2022/11/21 06:14:50;;;;;;;3.00;0.98;;;17.90;82.20;;;;;;5030699;28;20108;-72
2022/11/21 06:17:16;;;;;;;4.00;1.33;;;18.00;82.20;;;;;;5030437;28;20035;-72
2022/11/21 06:19:42;;;;;;;2.63;0.88;;;18.00;82.30;;;;;;5033842;28;20040;-71
2022/11/21 06:22:07;;;;;;;3.17;1.23;;;17.90;82.20;;;;;;5035436;28;20032;-71
2022/11/21 06:24:33;;;;;;;3.30;1.05;;;17.90;82.20;;;;;;5034160;28;20361;-71
2022/11/21 06:26:58;;;;;;;4.22;1.40;;;17.90;82.20;;;;;;5041987;28;20040;-71
2022/11/21 06:29:24;;;;;;;5.15;1.13;;;17.90;82.20;;;;;;5055078;28;20036;-71
2022/11/21 06:31:50;;;;;;;4.25;1.55;;;17.90;82.20;;;;;;5037638;28;20025;-71
2022/11/21 06:34:15;;;;;;;1.80;0.73;;;17.90;82.20;;;;;;5055023;28;20033;-71
2022/11/21 06:36:43;;;;;;;3.10;1.02;;;17.90;82.20;;;;;;5055214;28;20087;-71
2022/11/21 06:39:09;;;;;;;3.53;0.60;;;17.90;82.20;;;;;;5053831;28;20059;-71
2022/11/21 06:41:34;;;;;;;2.42;0.68;;;17.90;82.20;;;;;;5054776;28;20053;-71
2022/11/21 06:44:00;;;;;;;3.88;0.75;;;17.90;82.20;;;;;;5053848;28;20017;-71
2022/11/21 06:46:26;;;;;;;3.42;1.33;;;17.90;82.20;;;;;;5037015;28;20383;-71
2022/11/21 06:48:52;;;;;;;2.75;1.00;;;17.90;82.20;;;;;;5053669;28;20023;-71
2022/11/21 06:51:19;;;;;;;5.35;1.52;;;17.90;82.20;;;;;;5037168;28;20029;-71
2022/11/21 06:53:45;;;;;;;3.80;0.90;;;17.90;82.20;;;;;;5053634;28;20025;-71
2022/11/21 06:56:11;;;;;;;2.08;0.80;;;17.90;82.20;;;;;;5036736;28;20029;-71
2022/11/21 06:58:36;;;;;;;2.65;0.85;;;17.90;82.20;;;;;;5054630;28;20056;-71
2022/11/21 07:01:06;;;;;;;4.47;1.15;;;17.90;82.10;;;;;;5036695;28;20029;-71
2022/11/21 07:03:32;;;;;;;2.42;0.77;;;17.90;82.20;;;;;;5053257;28;20101;-72
2022/11/21 07:06:00;;;;;;;4.93;1.20;;;17.90;82.20;;;;;;5053253;28;20119;-72
2022/11/21 07:08:28;;;;;;;3.97;1.23;;;17.90;79.80;;;;;;5036951;28;20024;-72
2022/11/21 07:10:54;;;;;;;6.85;1.30;;;17.80;79.10;;;;;;5036109;28;20116;-72
2022/11/21 07:13:20;;;;;;;3.30;0.85;;;17.80;79.00;;;;;;5051484;28;20151;-72
2022/11/21 07:15:46;;;;;;;3.10;0.85;;;17.80;79.30;;;;;;5051700;28;20033;-72
2022/11/21 07:18:12;;;;;;;6.10;1.15;;;17.70;79.50;;;;;;5042690;28;20587;-72
2022/11/21 07:20:38;;;;;;;3.58;0.95;;;17.70;79.50;;;;;;5033486;28;20041;-72
2022/11/21 07:23:04;;;;;;;6.10;1.40;;;17.70;79.40;;;;;;5034205;28;20025;-72
2022/11/21 07:25:29;;;;;;;7.32;1.10;;;17.70;79.40;;;;;;5042750;28;20487;-72
2022/11/21 07:27:58;;;;;;;3.80;0.90;;;17.70;79.50;;;;;;5047888;28;20049;-72
2022/11/21 07:30:24;;;;;;;1.77;0.80;;;17.70;79.40;;;;;;5052077;28;20078;-72
2022/11/21 07:33:01;;;;;;;5.75;0.95;;;17.70;79.40;;;;;;5052831;28;20021;-72
2022/11/21 07:35:26;;;;;;;2.70;0.90;;;17.70;79.30;;;;;;5053880;28;20021;-72
2022/11/21 07:37:52;;;;;;;2.53;1.00;;;17.70;79.40;;;;;;5054193;28;20090;-72
2022/11/21 07:40:18;;;;;;;5.18;1.08;;;17.70;79.50;;;;;;5052360;28;20052;-72
2022/11/21 07:42:43;;;;;;;4.35;1.00;;;17.60;79.40;;;;;;5036228;28;20032;-72
2022/11/21 07:45:10;;;;;;;4.93;0.98;;;17.60;79.40;;;;;;5053869;28;20458;-72
2022/11/21 07:47:35;;;;;;;3.83;1.55;;;17.60;79.30;;;;;;5052643;28;20013;-72
2022/11/21 07:50:01;;;;;;;2.70;1.08;;;17.60;79.40;;;;;;5053922;28;20082;-72
2022/11/21 07:52:29;;;;;;;6.03;0.90;;;17.60;79.30;;;;;;5052303;28;20024;-72
2022/11/21 07:54:55;;;;;;;4.30;0.85;;;17.60;79.30;;;;;;5052498;28;20111;-72
2022/11/21 07:57:20;;;;;;;9.05;1.02;;;17.60;79.30;;;;;;5035658;28;20047;-72
2022/11/21 07:59:46;;;;;;;4.78;1.00;;;17.60;79.30;;;;;;5052199;28;20484;-72
2022/11/21 08:02:22;;;;;;;1.92;0.75;;;17.60;79.30;;;;;;5034071;28;20090;-72
2022/11/21 08:04:48;;;;;;;34.70;4.95;;;17.60;79.30;;;;;;5048761;28;20078;-72
2022/11/21 08:07:14;;;;;;;32.05;4.78;;;17.60;79.50;;;;;;5048667;28;20028;-72
2022/11/21 08:09:40;;;;;;;32.78;4.03;;;17.60;79.70;;;;;;5032556;28;20368;-72
2022/11/21 08:12:06;;;;;;;24.60;3.90;;;17.60;79.90;;;;;;5050447;28;20033;-72
2022/11/21 08:14:32;;;;;;;19.75;3.67;;;17.60;79.90;;;;;;5049424;28;20021;-72
2022/11/21 08:16:58;;;;;;;27.77;4.50;;;17.60;79.90;;;;;;5050167;28;20533;-72
2022/11/21 08:19:23;;;;;;;25.88;4.35;;;17.60;80.00;;;;;;5029724;28;20061;-72
2022/11/21 08:21:49;;;;;;;19.50;4.18;;;17.60;80.00;;;;;;5032180;28;20487;-72
2022/11/21 08:24:16;;;;;;;34.40;4.93;;;17.60;80.00;;;;;;5031566;28;20407;-72
2022/11/21 08:26:42;;;;;;;26.33;4.63;;;17.50;79.90;;;;;;5036424;28;20087;-72
2022/11/21 08:29:09;;;;;;;25.45;4.25;;;17.50;79.90;;;;;;5042156;28;20049;-72
2022/11/21 08:31:35;;;;;;;29.70;4.10;;;17.50;79.80;;;;;;5047488;28;20506;-72
2022/11/21 08:34:01;;;;;;;19.48;4.47;;;17.50;79.80;;;;;;5016979;28;20029;-72
2022/11/21 08:36:27;;;;;;;32.28;4.38;;;17.50;79.80;;;;;;5035968;28;20013;-72
2022/11/21 08:38:52;;;;;;;23.30;4.40;;;17.50;79.70;;;;;;5052542;28;20036;-72
2022/11/21 08:44:02;;;;;;;27.77;4.60;;;17.50;79.80;;;;;;5052719;28;20131;-72
2022/11/21 08:46:29;;;;;;;21.60;4.30;;;17.50;79.80;;;;;;5037339;28;20033;-72
2022/11/21 08:48:54;;;;;;;18.95;4.00;;;17.50;79.80;;;;;;5032824;28;20028;-72
2022/11/21 08:51:20;;;;;;;20.33;3.75;;;17.50;79.70;;;;;;5031215;28;20033;-72
2022/11/21 08:53:46;;;;;;;20.40;3.90;;;17.50;80.70;;;;;;5032584;28;20029;-72
2022/11/21 08:56:12;;;;;;;14.45;3.97;;;17.50;79.60;;;;;;5032658;28;20025;-72
2022/11/21 08:58:39;;;;;;;15.48;3.80;;;17.50;79.70;;;;;;5031083;28;20049;-72
2022/11/21 09:01:04;;;;;;;15.90;3.75;;;17.50;79.60;;;;;;5031289;28;20017;-72
2022/11/21 09:03:30;;;;;;;16.20;3.90;;;17.50;79.70;;;;;;5046172;28;20099;-72
2022/11/21 09:05:59;;;;;;;17.23;3.78;;;17.50;79.70;;;;;;5050887;28;20116;-72
2022/11/21 09:08:24;;;;;;;15.77;4.93;;;17.50;79.60;;;;;;5034543;28;20031;-72
2022/11/21 09:10:50;;;;;;;14.10;3.22;;;17.50;80.50;;;;;;5051163;28;20021;-72
2022/11/21 09:13:16;;;;;;;21.17;4.43;;;17.50;79.30;;;;;;5051092;28;20111;-72
2022/11/21 09:18:26;;;;;;;19.50;3.35;;;17.40;79.20;;;;;;5052260;28;20039;-72
2022/11/21 09:20:51;;;;;;;15.88;3.63;;;17.40;79.00;;;;;;5033872;28;20029;-72
2022/11/21 09:23:17;;;;;;;24.38;4.38;;;17.40;79.30;;;;;;5032323;28;20396;-72
2022/11/21 09:25:43;;;;;;;18.05;3.38;;;17.40;78.90;;;;;;5030755;28;20029;-72
2022/11/21 09:28:10;;;;;;;21.77;3.78;;;17.40;79.10;;;;;;5031055;28;20031;-72
2022/11/21 09:30:35;;;;;;;21.15;3.63;;;17.40;78.90;;;;;;5032204;28;20075;-72
2022/11/21 09:33:02;;;;;;;19.65;3.42;;;17.40;78.70;;;;;;5030967;28;20041;-72
2022/11/21 09:35:28;;;;;;;19.45;3.72;;;17.40;78.70;;;;;;5030817;28;20479;-72
2022/11/21 09:37:53;;;;;;;19.73;4.07;;;17.40;78.50;;;;;;5048230;28;20036;-72
2022/11/21 09:40:19;;;;;;;16.38;3.85;;;17.40;78.60;;;;;;5051939;28;20025;-72
2022/11/21 09:42:57;;;;;;;20.95;3.60;;;17.40;78.40;;;;;;5034344;28;20580;-72
2022/11/21 09:45:30;;;;;;;19.33;4.03;;;17.40;78.60;;;;;;5051999;28;20025;-72
2022/11/21 09:47:55;;;;;;;19.98;4.18;;;17.40;78.30;;;;;;5018634;28;20483;-72
2022/11/21 09:50:35;;;;;;;15.45;3.38;;;17.40;78.30;;;;;;5050664;28;20032;-72
2022/11/21 09:53:23;;;;;;;14.27;3.20;;;17.40;78.60;;;;;;5051921;28;20036;-72
2022/11/21 09:55:59;;;;;;;18.38;3.47;;;17.40;78.20;;;;;;5054687;28;20023;-72
2022/11/21 09:58:27;;;;;;;21.73;3.30;;;17.40;78.30;;;;;;5054686;28;20080;-72
2022/11/21 10:00:53;;;;;;;16.45;3.25;;;17.30;78.10;;;;;;5055793;28;20048;-72
2022/11/21 10:03:20;;;;;;;21.58;3.50;;;17.30;78.40;;;;;;5055948;28;20483;-72
2022/11/21 10:05:51;;;;;;;19.67;3.58;;;17.30;78.40;;;;;;5037873;28;20921;-72
2022/11/21 10:08:41;;;;;;;22.42;3.70;;;17.40;78.00;;;;;;5055637;28;20407;-72
2022/11/21 10:11:11;;;;;;;13.23;3.67;;;17.30;77.80;;;;;;5054623;28;20047;-72
2022/11/21 10:13:45;;;;;;;21.38;3.88;;;17.30;78.10;;;;;;5054425;28;20025;-72
2022/11/21 10:16:41;;;;;;;18.02;3.53;;;17.30;77.70;;;;;;5054347;28;20111;-72
2022/11/21 10:19:13;;;;;;;18.63;4.18;;;17.30;77.40;;;;;;5052004;28;20114;-72
2022/11/21 10:22:07;;;;;;;20.83;4.10;;;17.30;78.00;;;;;;5034297;28;20021;-72
2022/11/21 10:24:44;;;;;;;19.98;3.42;;;17.30;77.70;;;;;;5034218;28;20013;-72
2022/11/21 10:27:15;;;;;;;22.35;3.75;;;17.30;78.00;;;;;;5034445;28;20061;-72
2022/11/21 10:29:49;;;;;;;19.77;3.75;;;17.30;77.70;;;;;;5033965;28;20036;-72
2022/11/21 10:32:24;;;;;;;23.45;3.97;;;17.30;77.90;;;;;;5034223;28;20064;-72
2022/11/21 10:34:52;;;;;;;24.65;3.55;;;17.30;77.40;;;;;;5033824;28;20044;-72
2022/11/21 10:37:36;;;;;;;22.25;3.55;;;17.30;76.90;;;;;;5046438;28;20025;-72
2022/11/21 10:40:13;;;;;;;16.73;3.22;;;17.30;77.00;;;;;;5053997;28;20452;-72
2022/11/21 10:42:53;;;;;;;20.23;3.72;;;17.30;76.60;;;;;;5053827;28;20483;-72
2022/11/21 10:45:19;;;;;;;19.00;3.22;;;17.30;76.90;;;;;;5053905;28;20017;-72
2022/11/21 10:47:46;;;;;;;22.90;3.58;;;17.30;76.40;;;;;;5036914;28;20040;-72
2022/11/21 10:50:23;;;;;;;17.45;3.35;;;17.30;76.50;;;;;;5037356;28;20021;-72
2022/11/21 10:52:59;;;;;;;17.15;4.18;;;17.20;76.20;;;;;;5053615;28;20032;-72
2022/11/21 10:55:24;;;;;;;14.93;3.28;;;17.20;77.50;;;;;;5053743;28;20032;-72
2022/11/21 10:57:50;;;;;;;19.80;3.40;;;17.20;76.30;;;;;;5053468;28;20044;-72
2022/11/21 11:00:25;;;;;;;14.52;3.25;;;17.30;76.60;;;;;;5036807;28;20082;-72
2022/11/21 11:02:54;;;;;;;16.23;3.47;;;17.20;76.20;;;;;;5054405;28;20025;-72
2022/11/21 11:05:24;;;;;;;20.38;3.85;;;17.20;76.10;;;;;;5053685;28;20096;-72
2022/11/21 11:08:13;;;;;;;22.55;4.50;;;17.20;76.30;;;;;;5053494;28;20028;-72
2022/11/21 11:10:43;;;;;;;22.80;3.25;;;17.20;76.10;;;;;;5054076;28;20040;-72
2022/11/21 11:16:04;;;;;;;19.55;3.33;;;17.20;76.70;;;;;;5053345;28;20509;-72
2022/11/21 11:18:32;;;;;;;15.10;3.03;;;17.20;75.70;;;;;;5036893;28;20024;-72
2022/11/21 11:21:11;;;;;;;11.52;2.70;;;17.20;75.70;;;;;;5002620;28;20400;-72
2022/11/21 11:23:36;;;;;;;14.45;3.00;;;17.20;75.60;;;;;;5033101;28;20022;-72
2022/11/21 11:26:02;;;;;;;16.23;3.30;;;17.20;75.80;;;;;;5033169;28;20028;-72
2022/11/21 11:28:35;;;;;;;12.77;3.58;;;17.20;76.00;;;;;;5033199;28;20033;-72
2022/11/21 11:31:00;;;;;;;16.73;3.45;;;17.20;76.20;;;;;;5032754;28;20022;-72
2022/11/21 11:33:30;;;;;;;16.20;3.63;;;17.20;76.00;;;;;;5033057;28;20506;-72
2022/11/21 11:35:58;;;;;;;15.90;3.10;;;17.20;75.80;;;;;;5035117;28;20071;-72
2022/11/21 11:38:25;;;;;;;18.98;3.33;;;17.20;76.30;;;;;;5019909;28;20415;-72
2022/11/21 11:40:50;;;;;;;15.55;3.30;;;17.20;76.40;;;;;;5036046;28;20100;-72
2022/11/21 11:47:55;;;;;;;20.40;2.97;;;17.20;75.90;;;;;;5053036;28;20071;-72
2022/11/21 11:50:09;;;;;;;14.88;2.30;;;17.20;76.50;;;;;;5052426;28;20380;-72
2022/11/21 11:52:40;;;;;;;14.63;2.75;;;17.20;76.30;;;;;;5039005;28;20491;-72
2022/11/21 11:55:07;;;;;;;16.77;2.70;;;17.20;76.30;;;;;;5052704;28;20025;-72
2022/11/21 11:57:32;;;;;;;17.88;3.35;;;17.20;76.00;;;;;;5035899;28;20109;-72
2022/11/21 12:00:20;;;;;;;17.25;3.97;;;17.20;76.40;;;;;;5035631;28;20115;-72
2022/11/21 12:02:58;;;;;;;13.25;2.65;;;17.20;75.90;;;;;;5052348;28;20032;-72
2022/11/21 12:05:27;;;;;;;16.08;3.47;;;17.20;76.30;;;;;;5053427;28;20048;-72
2022/11/21 12:08:08;;;;;;;16.90;2.92;;;17.20;76.30;;;;;;5035890;28;20483;-72
2022/11/21 12:12:05;;;;;;;18.05;3.40;;;17.20;76.00;;;;;;5036682;28;20032;-72
2022/11/21 12:13:25;;;;;;;11.10;2.55;;;17.20;75.90;;;;;;5038731;28;20040;-72
2022/11/21 12:15:51;;;;;;;15.70;3.08;;;17.20;75.90;;;;;;5034924;28;20029;-72
2022/11/21 12:18:19;;;;;;;13.00;2.63;;;17.20;75.60;;;;;;5053239;28;20028;-72
2022/11/21 12:20:45;;;;;;;14.23;3.05;;;17.20;76.00;;;;;;5036945;28;20041;-72
2022/11/21 12:23:11;;;;;;;14.95;2.97;;;17.20;75.90;;;;;;5033273;28;20026;-72
2022/11/21 12:25:40;;;;;;;11.32;2.22;;;17.20;75.50;;;;;;5032118;28;20025;-72
2022/11/21 12:28:16;;;;;;;12.50;2.35;;;17.20;75.90;;;;;;5015263;28;20377;-72
2022/11/21 12:31:00;;;;;;;11.57;2.50;;;17.20;75.80;;;;;;5031772;28;20022;-72
2022/11/21 12:33:26;;;;;;;15.43;2.75;;;17.20;75.60;;;;;;5033029;28;20060;-72
2022/11/21 12:36:03;;;;;;;14.73;2.80;;;17.20;76.00;;;;;;5032255;28;20064;-72
2022/11/21 12:38:41;;;;;;;12.43;2.38;;;17.20;75.60;;;;;;5052758;28;20025;-72
2022/11/21 12:45:07;;;;;;;13.55;2.75;;;17.20;75.90;;;;;;5045400;28;20062;-72
2022/11/21 12:56:27;;;;;;;9.82;2.28;;;17.20;75.90;;;;;;5036325;28;20058;-72
2022/11/21 12:58:53;;;;;;;11.32;2.83;;;17.20;76.50;;;;;;5033093;28;20052;-72
2022/11/21 13:01:21;;;;;;;11.38;2.90;;;17.20;75.20;;;;;;5033809;28;20033;-72
2022/11/21 13:04:01;;;;;;;15.40;2.60;;;17.20;75.00;;;;;;5050355;28;20072;-72
2022/11/21 13:06:32;;;;;;;9.48;2.20;;;17.20;75.50;;;;;;5034201;28;20025;-72
2022/11/21 13:09:00;;;;;;;12.88;2.47;;;17.20;75.80;;;;;;5033530;28;20056;-72
2022/11/21 13:12:00;;;;;;;14.35;2.80;;;17.20;74.90;;;;;;5033850;28;20033;-72
2022/11/21 13:14:40;;;;;;;11.32;2.13;;;17.20;75.30;;;;;;5050627;28;20115;-72
2022/11/21 13:17:18;;;;;;;12.00;2.22;;;17.20;75.60;;;;;;5051025;28;20020;-72
2022/11/21 13:19:54;;;;;;;14.57;3.00;;;17.20;75.70;;;;;;5044623;28;20411;-72